createdAt,value
2022-10-20T00:02:14.425Z,100.00
2022-10-20T00:04:41.101Z,100.00
2022-10-20T00:07:07.577Z,100.00
2022-10-20T00:09:34.103Z,100.00
2022-10-20T00:12:00.579Z,100.00
2022-10-20T00:14:27.087Z,100.00
2022-10-20T00:16:53.632Z,100.00
2022-10-20T00:19:20.269Z,100.00
2022-10-20T00:21:46.740Z,100.00
2022-10-20T00:24:13.266Z,100.00
2022-10-20T00:26:39.736Z,100.00
2022-10-20T00:29:06.326Z,100.00
2022-10-20T00:31:33.082Z,100.00
2022-10-20T00:33:59.721Z,100.00
2022-10-20T00:36:26.244Z,100.00
2022-10-20T00:38:58.098Z,100.00
2022-10-20T00:41:24.645Z,100.00
2022-10-20T00:43:54.989Z,100.00
2022-10-20T00:46:24.867Z,100.00
2022-10-20T00:48:58.217Z,100.00
2022-10-20T00:51:28.868Z,100.00
2022-10-20T00:54:09.356Z,100.00
2022-10-20T00:56:39.925Z,100.00
2022-10-20T00:59:06.679Z,100.00
2022-10-20T01:01:33.518Z,100.00
2022-10-20T01:04:01.477Z,100.00
2022-10-20T01:06:28.320Z,100.00
2022-10-20T01:08:54.974Z,100.00
2022-10-20T01:11:50.985Z,100.00
2022-10-20T01:14:26.257Z,100.00
2022-10-20T01:17:25.703Z,100.00
2022-10-20T01:20:20.294Z,100.00
2022-10-20T01:23:13.274Z,100.00
2022-10-20T01:26:24.472Z,100.00
2022-10-20T01:28:58.235Z,100.00
2022-10-20T01:31:35.086Z,100.00
2022-10-20T01:34:25.156Z,100.00
2022-10-20T01:36:56.117Z,100.00
2022-10-20T01:39:29.961Z,100.00
2022-10-20T01:42:01.299Z,100.00
2022-10-20T01:44:30.581Z,100.00
2022-10-20T01:46:59.058Z,100.00
2022-10-20T01:49:26.423Z,100.00
2022-10-20T01:51:53.579Z,100.00
2022-10-20T01:54:25.737Z,100.00
2022-10-20T01:57:02.112Z,100.00
2022-10-20T01:59:57.840Z,100.00
2022-10-20T02:02:49.359Z,100.00
2022-10-20T02:05:23.974Z,100.00
2022-10-20T02:07:50.801Z,100.00
2022-10-20T02:10:49.566Z,100.00
2022-10-20T02:13:18.529Z,100.00
2022-10-20T02:15:50.993Z,100.00
2022-10-20T02:18:22.610Z,100.00
2022-10-20T02:20:52.263Z,100.00
2022-10-20T02:23:19.078Z,100.00
2022-10-20T02:25:49.734Z,100.00
2022-10-20T02:28:17.833Z,100.00
2022-10-20T02:30:45.675Z,100.00
2022-10-20T02:33:13.054Z,100.00
2022-10-20T02:35:43.884Z,100.00
2022-10-20T02:38:10.409Z,100.00
2022-10-20T02:40:36.888Z,100.00
2022-10-20T02:43:03.401Z,100.00
2022-10-20T02:45:29.864Z,100.00
2022-10-20T02:47:56.669Z,100.00
2022-10-20T02:50:23.150Z,100.00
2022-10-20T02:52:49.665Z,100.00
2022-10-20T02:55:16.266Z,100.00
2022-10-20T02:57:42.762Z,100.00
2022-10-20T03:00:09.970Z,100.00
2022-10-20T03:02:36.546Z,100.00
2022-10-20T03:05:03.489Z,100.00
2022-10-20T03:07:30.140Z,100.00
2022-10-20T03:09:56.731Z,100.00
2022-10-20T03:12:23.285Z,100.00
2022-10-20T03:14:49.854Z,100.00
2022-10-20T03:17:16.361Z,100.00
2022-10-20T03:19:42.943Z,100.00
2022-10-20T03:22:09.431Z,100.00
2022-10-20T03:24:35.984Z,100.00
2022-10-20T03:27:02.502Z,100.00
2022-10-20T03:29:29.009Z,100.00
2022-10-20T03:31:55.523Z,100.00
2022-10-20T03:34:22.122Z,100.00
2022-10-20T03:36:48.671Z,100.00
2022-10-20T03:39:15.229Z,100.00
2022-10-20T03:41:41.740Z,100.00
2022-10-20T03:44:10.169Z,100.00
2022-10-20T03:46:37.092Z,100.00
2022-10-20T03:49:04.148Z,100.00
2022-10-20T03:51:30.618Z,100.00
2022-10-20T03:53:57.124Z,100.00
2022-10-20T03:56:23.920Z,100.00
2022-10-20T03:58:50.795Z,100.00
2022-10-20T04:01:21.397Z,100.00
2022-10-20T04:03:47.953Z,100.00
2022-10-20T04:06:15.897Z,100.00
2022-10-20T04:08:42.586Z,100.00
2022-10-20T04:11:09.399Z,100.00
2022-10-20T04:13:35.966Z,100.00
2022-10-20T04:16:02.472Z,100.00
2022-10-20T04:18:29.065Z,100.00
2022-10-20T04:20:55.546Z,100.00
2022-10-20T04:23:22.093Z,100.00
2022-10-20T04:25:48.853Z,100.00
2022-10-20T04:28:17.308Z,100.00
2022-10-20T04:30:44.500Z,100.00
2022-10-20T04:33:12.010Z,100.00
2022-10-20T04:35:39.134Z,100.00
2022-10-20T04:38:06.123Z,100.00
2022-10-20T04:40:33.015Z,100.00
2022-10-20T04:43:01.101Z,100.00
2022-10-20T04:45:28.249Z,100.00
2022-10-20T04:47:54.951Z,100.00
2022-10-20T04:50:21.647Z,100.00
2022-10-20T04:52:48.112Z,100.00
2022-10-20T04:55:14.677Z,100.00
2022-10-20T04:57:41.254Z,100.00
2022-10-20T05:00:08.327Z,100.00
2022-10-20T05:02:34.798Z,100.00
2022-10-20T05:05:01.325Z,100.00
2022-10-20T05:07:30.432Z,100.00
2022-10-20T05:09:56.924Z,100.00
2022-10-20T05:12:23.738Z,100.00
2022-10-20T05:14:50.250Z,100.00
2022-10-20T05:17:16.728Z,100.00
2022-10-20T05:19:43.237Z,100.00
2022-10-20T05:22:09.774Z,100.00
2022-10-20T05:24:36.299Z,100.00
2022-10-20T05:27:02.928Z,100.00
2022-10-20T05:29:29.579Z,100.00
2022-10-20T05:31:56.087Z,100.00
2022-10-20T05:34:22.637Z,100.00
2022-10-20T05:36:49.166Z,100.00
2022-10-20T05:39:15.790Z,100.00
2022-10-20T05:41:42.282Z,100.00
2022-10-20T05:44:11.339Z,100.00
2022-10-20T05:46:41.141Z,100.00
2022-10-20T05:49:11.072Z,100.00
2022-10-20T05:51:37.668Z,100.00
2022-10-20T05:54:04.385Z,100.00
2022-10-20T05:56:32.059Z,100.00
2022-10-20T05:58:58.762Z,100.00
2022-10-20T06:01:49.709Z,100.00
2022-10-20T06:04:25.050Z,100.00
2022-10-20T06:06:52.700Z,100.00
2022-10-20T06:09:21.369Z,100.00
2022-10-20T06:11:48.227Z,100.00
2022-10-20T06:14:15.311Z,100.00
2022-10-20T06:16:41.858Z,100.00
2022-10-20T06:19:08.419Z,100.00
2022-10-20T06:21:36.323Z,100.00
2022-10-20T06:24:04.909Z,100.00
2022-10-20T06:26:33.524Z,100.00
2022-10-20T06:29:04.752Z,100.00
2022-10-20T06:31:40.912Z,100.00
2022-10-20T06:34:14.524Z,100.00
2022-10-20T06:36:46.481Z,100.00
2022-10-20T06:39:23.775Z,100.00
2022-10-20T06:41:53.446Z,100.00
2022-10-20T06:44:22.299Z,100.00
2022-10-20T06:46:49.842Z,100.00
2022-10-20T06:49:16.367Z,100.00
2022-10-20T06:51:42.911Z,100.00
2022-10-20T06:54:09.513Z,100.00
2022-10-20T06:56:37.043Z,100.00
2022-10-20T06:59:07.268Z,100.00
2022-10-20T07:01:46.933Z,100.00
2022-10-20T07:04:15.393Z,100.00
2022-10-20T07:06:44.741Z,100.00
2022-10-20T07:09:17.648Z,100.00
2022-10-20T07:11:44.589Z,100.00
2022-10-20T07:14:13.591Z,100.00
2022-10-20T07:16:40.238Z,100.00
2022-10-20T07:19:07.026Z,100.00
2022-10-20T07:21:36.560Z,100.00
2022-10-20T07:24:06.649Z,100.00
2022-10-20T07:26:35.962Z,100.00
2022-10-20T07:29:03.841Z,100.00
2022-10-20T07:31:33.649Z,100.00
2022-10-20T07:34:12.969Z,100.00
2022-10-20T07:36:42.571Z,100.00
2022-10-20T07:39:11.119Z,100.00
2022-10-20T07:41:39.572Z,100.00
2022-10-20T07:44:07.042Z,100.00
2022-10-20T07:46:33.543Z,100.00
2022-10-20T07:49:23.824Z,100.00
2022-10-20T07:51:46.587Z,100.00
2022-10-20T07:54:13.120Z,100.00
2022-10-20T07:56:41.873Z,100.00
2022-10-20T07:59:10.191Z,100.00
2022-10-20T08:01:37.228Z,100.00
2022-10-20T08:04:04.038Z,100.00
2022-10-20T08:06:30.913Z,100.00
2022-10-20T08:08:57.560Z,100.00
2022-10-20T08:11:24.568Z,100.00
2022-10-20T08:13:51.152Z,100.00
2022-10-20T08:16:27.247Z,100.00
2022-10-20T08:21:22.841Z,100.00
2022-10-20T08:23:49.900Z,100.00
2022-10-20T08:26:26.181Z,100.00
2022-10-20T08:28:54.702Z,100.00
2022-10-20T08:31:22.040Z,100.00
2022-10-20T08:33:52.309Z,100.00
2022-10-20T08:36:20.424Z,100.00
2022-10-20T08:38:46.964Z,100.00
2022-10-20T08:41:22.748Z,100.00
2022-10-20T08:43:52.484Z,100.00
2022-10-20T08:46:20.726Z,100.00
2022-10-20T08:48:48.261Z,100.00
2022-10-20T08:51:27.758Z,100.00
2022-10-20T08:53:57.368Z,100.00
2022-10-20T08:56:26.055Z,100.00
2022-10-20T08:58:52.956Z,100.00
2022-10-20T09:01:33.354Z,100.00
2022-10-20T09:04:20.071Z,100.00
2022-10-20T09:06:51.985Z,100.00
2022-10-20T09:09:21.331Z,100.00
2022-10-20T09:11:48.551Z,100.00
2022-10-20T09:14:16.709Z,100.00
2022-10-20T09:16:59.880Z,100.00
2022-10-20T09:19:28.486Z,100.00
2022-10-20T09:21:58.113Z,100.00
2022-10-20T09:24:30.053Z,100.00
2022-10-20T09:27:15.869Z,100.00
2022-10-20T09:29:42.417Z,100.00
2022-10-20T09:32:46.002Z,100.00
2022-10-20T09:35:33.020Z,100.00
2022-10-20T09:38:09.793Z,100.00
2022-10-20T09:40:43.295Z,100.00
2022-10-20T09:43:15.396Z,100.00
2022-10-20T09:45:52.784Z,100.00
2022-10-20T09:48:29.150Z,100.00
2022-10-20T09:50:57.421Z,100.00
2022-10-20T09:53:32.474Z,100.00
2022-10-20T09:55:59.780Z,100.00
2022-10-20T09:58:38.490Z,100.00
2022-10-20T10:01:13.123Z,100.00
2022-10-20T10:03:44.967Z,100.00
2022-10-20T10:06:37.988Z,100.00
2022-10-20T10:09:26.492Z,100.00
2022-10-20T10:12:12.247Z,100.00
2022-10-20T10:14:51.213Z,100.00
2022-10-20T10:17:39.976Z,100.00
2022-10-20T10:20:12.503Z,100.00
2022-10-20T10:22:40.345Z,100.00
2022-10-20T10:25:14.972Z,100.00
2022-10-20T10:27:58.314Z,100.00
2022-10-20T10:30:27.769Z,100.00
2022-10-20T10:32:55.214Z,100.00
2022-10-20T10:35:26.886Z,100.00
2022-10-20T10:37:54.487Z,99.17
2022-10-20T10:40:37.693Z,100.00
2022-10-20T10:43:31.943Z,100.00
2022-10-20T10:46:01.254Z,99.69
2022-10-20T10:48:27.667Z,100.00
2022-10-20T10:50:58.888Z,100.00
2022-10-20T10:53:42.364Z,100.00
2022-10-20T10:56:24.004Z,100.00
2022-10-20T10:59:09.087Z,100.00
2022-10-20T11:01:47.462Z,100.00
2022-10-20T11:04:25.841Z,100.00
2022-10-20T11:07:01.271Z,100.00
2022-10-20T11:09:58.876Z,99.92
2022-10-20T11:12:34.135Z,98.94
2022-10-20T11:15:15.617Z,98.19
2022-10-20T11:17:57.350Z,97.80
2022-10-20T11:20:39.770Z,98.63
2022-10-20T11:23:27.337Z,98.77
2022-10-20T11:26:00.096Z,97.55
2022-10-20T11:28:45.869Z,97.56
2022-10-20T11:31:42.321Z,97.22
2022-10-20T11:34:50.260Z,97.55
2022-10-20T11:37:22.677Z,96.57
2022-10-20T11:39:57.335Z,93.40
2022-10-20T11:42:32.530Z,94.21
2022-10-20T11:45:01.319Z,94.88
2022-10-20T11:47:36.242Z,92.29
2022-10-20T11:50:09.727Z,95.67
2022-10-20T11:53:01.015Z,89.50
2022-10-20T11:55:46.228Z,92.69
2022-10-20T11:58:32.092Z,89.84
2022-10-20T12:01:23.260Z,89.88
2022-10-20T12:04:13.847Z,90.39
2022-10-20T12:07:18.032Z,90.88
2022-10-20T12:10:02.584Z,89.81
2022-10-20T12:12:53.677Z,90.03
2022-10-20T12:15:25.213Z,89.66
2022-10-20T12:17:54.009Z,90.73
2022-10-20T12:20:20.460Z,91.01
2022-10-20T12:22:50.562Z,90.82
2022-10-20T12:25:26.540Z,91.29
2022-10-20T12:28:22.486Z,90.17
2022-10-20T12:30:59.352Z,90.61
2022-10-20T12:33:50.780Z,90.32
2022-10-20T12:36:17.347Z,90.72
2022-10-20T12:38:49.192Z,89.19
2022-10-20T12:41:30.377Z,90.34
2022-10-20T12:44:21.215Z,91.60
2022-10-20T12:47:19.805Z,89.80
2022-10-20T12:49:59.035Z,91.33
2022-10-20T12:52:32.547Z,91.92
2022-10-20T12:55:18.540Z,91.55
2022-10-20T12:57:46.446Z,90.99
2022-10-20T13:00:19.059Z,90.14
2022-10-20T13:02:50.897Z,90.69
2022-10-20T13:05:17.347Z,90.37
2022-10-20T13:07:47.020Z,91.22
2022-10-20T13:10:38.726Z,88.17
2022-10-20T13:13:05.188Z,88.64
2022-10-20T13:15:35.578Z,89.43
2022-10-20T13:18:04.210Z,87.93
2022-10-20T13:21:14.873Z,89.00
2022-10-20T13:23:45.527Z,87.40
2022-10-20T13:26:23.291Z,87.84
2022-10-20T13:28:52.850Z,87.36
2022-10-20T13:32:03.738Z,87.12
2022-10-20T13:34:55.600Z,87.84
2022-10-20T13:37:28.421Z,87.68
2022-10-20T13:40:31.080Z,87.45
2022-10-20T13:43:03.580Z,86.33
2022-10-20T13:45:57.865Z,87.48
2022-10-20T13:48:40.784Z,88.74
2022-10-20T13:51:21.329Z,87.97
2022-10-20T13:53:52.539Z,88.27
2022-10-20T13:56:31.739Z,86.48
2022-10-20T13:59:06.945Z,86.46
2022-10-20T14:01:36.200Z,86.68
2022-10-20T14:04:02.820Z,86.08
2022-10-20T14:06:29.291Z,86.16
2022-10-20T14:08:58.019Z,87.02
2022-10-20T14:11:30.767Z,87.92
2022-10-20T14:13:59.677Z,87.45
2022-10-20T14:16:28.902Z,87.03
2022-10-20T14:19:09.177Z,85.10
2022-10-20T14:21:42.641Z,84.61
2022-10-20T14:24:16.597Z,83.40
2022-10-20T14:26:44.317Z,84.31
2022-10-20T14:29:16.206Z,83.67
2022-10-20T14:31:44.274Z,84.07
2022-10-20T14:34:22.790Z,81.56
2022-10-20T14:36:51.126Z,81.67
2022-10-20T14:39:30.363Z,82.38
2022-10-20T14:42:00.883Z,82.69
2022-10-20T14:44:31.744Z,82.08
2022-10-20T14:47:05.272Z,83.39
2022-10-20T14:49:39.296Z,83.59
2022-10-20T14:52:22.059Z,82.82
2022-10-20T14:54:50.641Z,82.97
2022-10-20T14:57:17.094Z,83.41
2022-10-20T15:00:02.786Z,83.27
2022-10-20T15:02:32.561Z,83.97
2022-10-20T15:05:31.184Z,84.31
2022-10-20T15:07:58.434Z,84.50
2022-10-20T15:10:26.789Z,85.07
2022-10-20T15:12:56.536Z,84.85
2022-10-20T15:15:29.208Z,85.43
2022-10-20T15:18:04.711Z,85.57
2022-10-20T15:20:33.981Z,86.42
2022-10-20T15:23:11.301Z,86.64
2022-10-20T15:25:46.942Z,86.37
2022-10-20T15:28:21.398Z,86.30
2022-10-20T15:30:48.165Z,86.51
2022-10-20T15:33:14.756Z,85.79
2022-10-20T15:35:45.229Z,86.05
2022-10-20T15:38:11.756Z,86.41
2022-10-20T15:40:38.365Z,86.31
2022-10-20T15:43:05.415Z,86.95
2022-10-20T15:45:37.502Z,87.82
2022-10-20T15:48:04.227Z,88.37
2022-10-20T15:50:30.973Z,88.41
2022-10-20T15:52:57.496Z,88.93
2022-10-20T15:55:31.385Z,89.09
2022-10-20T15:57:58.327Z,89.71
2022-10-20T16:00:27.425Z,90.03
2022-10-20T16:02:54.155Z,90.21
2022-10-20T16:05:26.167Z,90.30
2022-10-20T16:07:54.267Z,90.81
2022-10-20T16:10:28.576Z,90.54
2022-10-20T16:12:55.587Z,90.96
2022-10-20T16:15:22.368Z,91.53
2022-10-20T16:20:20.304Z,92.06
2022-10-20T16:22:46.902Z,92.26
2022-10-20T16:25:13.545Z,92.89
2022-10-20T16:27:40.323Z,93.64
2022-10-20T16:30:08.160Z,93.56
2022-10-20T16:32:35.448Z,93.17
2022-10-20T16:35:04.288Z,94.32
2022-10-20T16:37:32.741Z,94.64
2022-10-20T16:39:59.922Z,92.40
2022-10-20T16:42:28.334Z,92.67
2022-10-20T16:44:54.836Z,92.25
2022-10-20T16:47:21.445Z,92.03
2022-10-20T16:49:47.985Z,91.75
2022-10-20T16:52:14.523Z,91.28
2022-10-20T16:57:13.307Z,92.19
2022-10-20T16:59:39.867Z,93.88
2022-10-20T17:02:06.525Z,95.25
2022-10-20T17:04:33.640Z,95.75
2022-10-20T17:07:00.200Z,96.19
2022-10-20T17:09:27.027Z,96.93
2022-10-20T17:11:53.543Z,97.23
2022-10-20T17:14:20.118Z,97.85
2022-10-20T17:16:47.399Z,96.81
2022-10-20T17:19:14.041Z,97.32
2022-10-20T17:21:40.571Z,97.71
2022-10-20T17:24:11.479Z,97.34
2022-10-20T17:26:39.841Z,97.66
2022-10-20T17:29:08.577Z,97.72
2022-10-20T17:31:37.115Z,97.90
2022-10-20T17:34:05.296Z,98.72
2022-10-20T17:36:32.268Z,98.40
2022-10-20T17:39:01.768Z,98.37
2022-10-20T17:41:28.611Z,98.41
2022-10-20T17:43:55.230Z,98.45
2022-10-20T17:46:21.973Z,99.18
2022-10-20T17:48:48.443Z,99.37
2022-10-20T17:51:21.361Z,100.00
2022-10-20T17:53:50.110Z,100.00
2022-10-20T17:56:19.915Z,100.00
2022-10-20T17:58:49.245Z,100.00
2022-10-20T18:01:18.105Z,100.00
2022-10-20T18:03:46.787Z,100.00
2022-10-20T18:06:19.285Z,100.00
2022-10-20T18:08:46.124Z,100.00
2022-10-20T18:11:18.922Z,100.00
2022-10-20T18:13:45.968Z,100.00
2022-10-20T18:16:15.551Z,100.00
2022-10-20T18:18:42.287Z,100.00
2022-10-20T18:21:11.292Z,100.00
2022-10-20T18:23:38.446Z,100.00
2022-10-20T18:26:13.773Z,100.00
2022-10-20T18:28:43.163Z,100.00
2022-10-20T18:31:17.678Z,100.00
2022-10-20T18:33:44.887Z,100.00
2022-10-20T18:36:13.690Z,100.00
2022-10-20T18:38:42.160Z,100.00
2022-10-20T18:41:20.242Z,100.00
2022-10-20T18:43:47.055Z,100.00
2022-10-20T18:46:14.911Z,100.00
2022-10-20T18:48:41.887Z,100.00
2022-10-20T18:51:10.454Z,100.00
2022-10-20T18:53:38.328Z,100.00
2022-10-20T18:56:08.354Z,100.00
2022-10-20T18:58:38.339Z,100.00
2022-10-20T19:01:10.049Z,100.00
2022-10-20T19:03:37.087Z,100.00
2022-10-20T19:06:09.734Z,100.00
2022-10-20T19:08:38.158Z,100.00
2022-10-20T19:11:07.302Z,100.00
2022-10-20T19:13:34.166Z,100.00
2022-10-20T19:16:06.042Z,100.00
2022-10-20T19:18:32.671Z,100.00
2022-10-20T19:21:02.096Z,100.00
2022-10-20T19:23:31.143Z,100.00
2022-10-20T19:26:22.520Z,100.00
2022-10-20T19:28:58.857Z,100.00
2022-10-20T19:31:41.805Z,100.00
2022-10-20T19:34:18.254Z,100.00
2022-10-20T19:36:48.405Z,100.00
2022-10-20T19:39:21.700Z,100.00
2022-10-20T19:41:48.680Z,100.00
2022-10-20T19:44:15.679Z,100.00
2022-10-20T19:46:44.306Z,100.00
2022-10-20T19:49:11.667Z,100.00
2022-10-20T19:51:38.707Z,100.00
2022-10-20T19:54:06.200Z,100.00
2022-10-20T19:56:34.193Z,100.00
2022-10-20T19:59:02.598Z,100.00
2022-10-20T20:01:29.591Z,100.00
2022-10-20T20:03:56.460Z,100.00
2022-10-20T20:06:23.339Z,100.00
2022-10-20T20:08:53.799Z,100.00
2022-10-20T20:11:23.913Z,100.00
2022-10-20T20:13:53.500Z,100.00
2022-10-20T20:16:20.912Z,100.00
2022-10-20T20:18:48.239Z,100.00
2022-10-20T20:21:15.611Z,100.00
2022-10-20T20:23:58.280Z,100.00
2022-10-20T20:26:25.807Z,100.00
2022-10-20T20:28:54.222Z,100.00
2022-10-20T20:31:21.625Z,100.00
2022-10-20T20:33:48.298Z,100.00
2022-10-20T20:36:14.897Z,100.00
2022-10-20T20:38:42.052Z,100.00
2022-10-20T20:41:13.672Z,100.00
2022-10-20T20:43:45.473Z,100.00
2022-10-20T20:46:16.775Z,100.00
2022-10-20T20:48:44.037Z,100.00
2022-10-20T20:51:11.515Z,100.00
2022-10-20T20:53:39.624Z,100.00
2022-10-20T20:56:09.706Z,100.00
2022-10-20T20:58:36.675Z,100.00
2022-10-20T21:01:19.067Z,100.00
2022-10-20T21:03:46.677Z,100.00
2022-10-20T21:06:16.111Z,100.00
2022-10-20T21:08:45.463Z,100.00
2022-10-20T21:11:21.917Z,100.00
2022-10-20T21:13:49.972Z,100.00
2022-10-20T21:16:19.967Z,100.00
2022-10-20T21:18:49.428Z,100.00
2022-10-20T21:21:19.750Z,100.00
2022-10-20T21:23:46.332Z,100.00
2022-10-20T21:26:15.606Z,100.00
2022-10-20T21:28:42.769Z,100.00
2022-10-20T21:31:12.033Z,100.00
2022-10-20T21:33:39.120Z,100.00
2022-10-20T21:36:13.534Z,100.00
2022-10-20T21:38:41.092Z,100.00
2022-10-20T21:41:10.943Z,100.00
2022-10-20T21:43:40.301Z,100.00
2022-10-20T21:46:31.610Z,100.00
2022-10-20T21:49:01.314Z,100.00
2022-10-20T21:51:30.999Z,100.00
2022-10-20T21:53:59.828Z,100.00
2022-10-20T21:56:26.728Z,100.00
2022-10-20T21:58:54.045Z,100.00
2022-10-20T22:01:23.061Z,100.00
2022-10-20T22:03:51.406Z,100.00
2022-10-20T22:06:19.947Z,100.00
2022-10-20T22:08:49.101Z,100.00
2022-10-20T22:11:19.127Z,100.00
2022-10-20T22:13:47.191Z,100.00
2022-10-20T22:16:16.861Z,100.00
2022-10-20T22:18:43.535Z,100.00
2022-10-20T22:21:13.703Z,100.00
2022-10-20T22:23:40.946Z,100.00
2022-10-20T22:26:07.732Z,100.00
2022-10-20T22:28:34.397Z,100.00
2022-10-20T22:33:33.236Z,100.00
2022-10-20T22:35:59.755Z,100.00
2022-10-20T22:38:26.287Z,100.00
2022-10-20T22:40:52.767Z,100.00
2022-10-20T22:43:19.271Z,100.00
2022-10-20T22:45:45.750Z,100.00
2022-10-20T22:48:12.325Z,100.00
2022-10-20T22:50:38.797Z,100.00
2022-10-20T22:53:05.304Z,100.00
2022-10-20T22:55:31.771Z,100.00
2022-10-20T23:00:29.994Z,100.00
2022-10-20T23:02:56.777Z,100.00
2022-10-20T23:05:23.333Z,100.00
2022-10-20T23:07:49.906Z,100.00
2022-10-20T23:10:16.578Z,100.00
2022-10-20T23:12:43.074Z,100.00
2022-10-20T23:15:10.088Z,100.00
2022-10-20T23:17:37.772Z,100.00
2022-10-20T23:20:04.775Z,100.00
2022-10-20T23:22:31.260Z,100.00
2022-10-20T23:24:57.766Z,100.00
2022-10-20T23:27:24.284Z,100.00
2022-10-20T23:29:50.780Z,100.00
2022-10-20T23:32:17.253Z,100.00
2022-10-20T23:34:43.792Z,100.00
2022-10-20T23:37:10.296Z,100.00
2022-10-20T23:39:36.823Z,100.00
2022-10-20T23:42:06.377Z,100.00
2022-10-20T23:44:33.883Z,100.00
2022-10-20T23:47:00.392Z,100.00
2022-10-20T23:49:26.892Z,100.00
2022-10-20T23:51:53.364Z,100.00
2022-10-20T23:54:19.872Z,100.00
2022-10-20T23:56:46.479Z,100.00
2022-10-20T23:59:13.028Z,100.00
